sensor_id;sensor_type;location;lat;lon;timestamp;temperature;humidity
14733;DHT22;7457;50.960;6.830;2023-01-10T00:01:51;5.50;95.40
14733;DHT22;7457;50.960;6.830;2023-01-10T00:04:16;5.50;95.40
14733;DHT22;7457;50.960;6.830;2023-01-10T00:06:42;5.50;95.40
14733;DHT22;7457;50.960;6.830;2023-01-10T00:09:09;5.50;95.40
14733;DHT22;7457;50.960;6.830;2023-01-10T00:11:35;5.50;95.30
14733;DHT22;7457;50.960;6.830;2023-01-10T00:14:19;5.60;95.30
14733;DHT22;7457;50.960;6.830;2023-01-10T00:16:45;5.60;95.10
14733;DHT22;7457;50.960;6.830;2023-01-10T00:19:10;5.60;95.10
14733;DHT22;7457;50.960;6.830;2023-01-10T00:21:36;5.60;95.00
14733;DHT22;7457;50.960;6.830;2023-01-10T00:24:04;5.60;94.90
14733;DHT22;7457;50.960;6.830;2023-01-10T00:26:46;5.60;94.80
14733;DHT22;7457;50.960;6.830;2023-01-10T00:29:23;5.60;94.70
14733;DHT22;7457;50.960;6.830;2023-01-10T00:31:49;5.70;94.60
14733;DHT22;7457;50.960;6.830;2023-01-10T00:34:15;5.70;94.40
14733;DHT22;7457;50.960;6.830;2023-01-10T00:36:40;5.70;94.20
14733;DHT22;7457;50.960;6.830;2023-01-10T00:39:07;5.70;94.10
14733;DHT22;7457;50.960;6.830;2023-01-10T00:41:35;5.80;93.90
14733;DHT22;7457;50.960;6.830;2023-01-10T00:44:19;5.80;93.80
14733;DHT22;7457;50.960;6.830;2023-01-10T00:46:45;5.80;93.60
14733;DHT22;7457;50.960;6.830;2023-01-10T00:49:10;5.80;93.50
14733;DHT22;7457;50.960;6.830;2023-01-10T00:51:38;5.80;93.50
14733;DHT22;7457;50.960;6.830;2023-01-10T00:54:04;5.80;93.30
14733;DHT22;7457;50.960;6.830;2023-01-10T00:56:29;5.80;93.20
14733;DHT22;7457;50.960;6.830;2023-01-10T00:58:55;5.80;93.10
14733;DHT22;7457;50.960;6.830;2023-01-10T01:01:21;5.80;93.10
14733;DHT22;7457;50.960;6.830;2023-01-10T01:03:46;5.80;93.00
14733;DHT22;7457;50.960;6.830;2023-01-10T01:06:12;5.80;93.00
14733;DHT22;7457;50.960;6.830;2023-01-10T01:08:37;5.80;92.90
14733;DHT22;7457;50.960;6.830;2023-01-10T01:11:03;5.80;92.80
14733;DHT22;7457;50.960;6.830;2023-01-10T01:13:29;5.80;92.80
14733;DHT22;7457;50.960;6.830;2023-01-10T01:15:57;5.90;92.80
14733;DHT22;7457;50.960;6.830;2023-01-10T01:18:24;5.80;92.80
14733;DHT22;7457;50.960;6.830;2023-01-10T01:20:53;5.80;92.70
14733;DHT22;7457;50.960;6.830;2023-01-10T01:23:21;5.80;92.70
14733;DHT22;7457;50.960;6.830;2023-01-10T01:25:49;5.80;92.70
14733;DHT22;7457;50.960;6.830;2023-01-10T01:28:16;5.80;92.60
14733;DHT22;7457;50.960;6.830;2023-01-10T01:30:41;5.80;92.60
14733;DHT22;7457;50.960;6.830;2023-01-10T01:33:07;5.80;92.60
14733;DHT22;7457;50.960;6.830;2023-01-10T01:35:32;5.70;92.60
14733;DHT22;7457;50.960;6.830;2023-01-10T01:37:58;5.70;92.50
14733;DHT22;7457;50.960;6.830;2023-01-10T01:40:24;5.70;92.50
14733;DHT22;7457;50.960;6.830;2023-01-10T01:42:50;5.70;92.60
14733;DHT22;7457;50.960;6.830;2023-01-10T01:47:59;5.60;92.60
14733;DHT22;7457;50.960;6.830;2023-01-10T01:50:55;5.60;92.60
14733;DHT22;7457;50.960;6.830;2023-01-10T01:53:31;5.50;92.70
14733;DHT22;7457;50.960;6.830;2023-01-10T01:56:02;5.50;92.80
14733;DHT22;7457;50.960;6.830;2023-01-10T01:58:40;5.50;92.90
14733;DHT22;7457;50.960;6.830;2023-01-10T02:01:09;5.50;93.00
14733;DHT22;7457;50.960;6.830;2023-01-10T02:03:35;5.50;93.00
14733;DHT22;7457;50.960;6.830;2023-01-10T02:06:02;5.50;93.00
14733;DHT22;7457;50.960;6.830;2023-01-10T02:08:28;5.50;93.00
14733;DHT22;7457;50.960;6.830;2023-01-10T02:11:09;5.50;93.00
14733;DHT22;7457;50.960;6.830;2023-01-10T02:13:40;5.50;93.00
14733;DHT22;7457;50.960;6.830;2023-01-10T02:16:07;5.50;92.90
14733;DHT22;7457;50.960;6.830;2023-01-10T02:18:34;5.50;92.80
14733;DHT22;7457;50.960;6.830;2023-01-10T02:21:22;5.50;92.70
14733;DHT22;7457;50.960;6.830;2023-01-10T02:34:50;5.40;92.50
14733;DHT22;7457;50.960;6.830;2023-01-10T02:37:25;5.40;92.60
14733;DHT22;7457;50.960;6.830;2023-01-10T02:42:47;5.40;92.70
14733;DHT22;7457;50.960;6.830;2023-01-10T02:45:23;5.40;92.60
14733;DHT22;7457;50.960;6.830;2023-01-10T02:47:51;5.40;92.50
14733;DHT22;7457;50.960;6.830;2023-01-10T02:52:52;5.40;92.10
14733;DHT22;7457;50.960;6.830;2023-01-10T02:55:20;5.40;92.10
14733;DHT22;7457;50.960;6.830;2023-01-10T02:57:54;5.40;92.00
14733;DHT22;7457;50.960;6.830;2023-01-10T03:00:43;5.30;92.00
14733;DHT22;7457;50.960;6.830;2023-01-10T03:03:32;5.30;92.00
14733;DHT22;7457;50.960;6.830;2023-01-10T03:11:15;5.30;91.80
14733;DHT22;7457;50.960;6.830;2023-01-10T03:14:02;5.20;91.70
14733;DHT22;7457;50.960;6.830;2023-01-10T03:16:29;5.10;91.60
14733;DHT22;7457;50.960;6.830;2023-01-10T03:19:06;5.00;91.60
14733;DHT22;7457;50.960;6.830;2023-01-10T03:21:33;5.00;91.80
14733;DHT22;7457;50.960;6.830;2023-01-10T03:24:04;4.90;91.80
14733;DHT22;7457;50.960;6.830;2023-01-10T03:26:55;4.90;91.90
14733;DHT22;7457;50.960;6.830;2023-01-10T03:29:50;4.80;92.10
14733;DHT22;7457;50.960;6.830;2023-01-10T03:32:21;4.90;92.40
14733;DHT22;7457;50.960;6.830;2023-01-10T03:34:48;4.90;92.50
14733;DHT22;7457;50.960;6.830;2023-01-10T03:40:26;5.00;92.40
14733;DHT22;7457;50.960;6.830;2023-01-10T03:42:57;5.00;92.20
14733;DHT22;7457;50.960;6.830;2023-01-10T03:46:05;5.10;92.00
14733;DHT22;7457;50.960;6.830;2023-01-10T03:48:36;5.00;91.70
14733;DHT22;7457;50.960;6.830;2023-01-10T03:51:04;5.00;91.70
14733;DHT22;7457;50.960;6.830;2023-01-10T03:53:33;4.90;91.60
14733;DHT22;7457;50.960;6.830;2023-01-10T03:56:01;4.90;91.70
14733;DHT22;7457;50.960;6.830;2023-01-10T03:58:28;4.80;91.70
14733;DHT22;7457;50.960;6.830;2023-01-10T04:00:54;4.70;91.70
14733;DHT22;7457;50.960;6.830;2023-01-10T04:03:19;4.70;91.80
14733;DHT22;7457;50.960;6.830;2023-01-10T04:05:45;4.60;92.00
14733;DHT22;7457;50.960;6.830;2023-01-10T04:08:11;4.60;92.20
14733;DHT22;7457;50.960;6.830;2023-01-10T04:10:36;4.50;92.50
14733;DHT22;7457;50.960;6.830;2023-01-10T04:13:03;4.60;92.60
14733;DHT22;7457;50.960;6.830;2023-01-10T04:15:29;4.60;92.70
14733;DHT22;7457;50.960;6.830;2023-01-10T04:17:55;4.60;92.80
14733;DHT22;7457;50.960;6.830;2023-01-10T04:20:21;4.60;92.80
14733;DHT22;7457;50.960;6.830;2023-01-10T04:22:47;4.60;92.80
14733;DHT22;7457;50.960;6.830;2023-01-10T04:25:14;4.60;92.60
14733;DHT22;7457;50.960;6.830;2023-01-10T04:27:40;4.60;92.50
14733;DHT22;7457;50.960;6.830;2023-01-10T04:30:06;4.60;92.50
14733;DHT22;7457;50.960;6.830;2023-01-10T04:32:32;4.60;92.50
14733;DHT22;7457;50.960;6.830;2023-01-10T04:34:58;4.50;92.70
14733;DHT22;7457;50.960;6.830;2023-01-10T04:37:23;4.50;92.80
14733;DHT22;7457;50.960;6.830;2023-01-10T04:39:49;4.50;93.00
14733;DHT22;7457;50.960;6.830;2023-01-10T04:42:15;4.60;93.10
14733;DHT22;7457;50.960;6.830;2023-01-10T04:44:41;4.60;93.20
14733;DHT22;7457;50.960;6.830;2023-01-10T04:47:07;4.60;93.30
14733;DHT22;7457;50.960;6.830;2023-01-10T04:49:32;4.70;93.40
14733;DHT22;7457;50.960;6.830;2023-01-10T04:51:58;4.80;93.50
14733;DHT22;7457;50.960;6.830;2023-01-10T04:54:24;4.80;93.50
14733;DHT22;7457;50.960;6.830;2023-01-10T04:56:49;4.90;93.30
14733;DHT22;7457;50.960;6.830;2023-01-10T04:59:15;5.00;93.00
14733;DHT22;7457;50.960;6.830;2023-01-10T05:01:41;5.00;92.80
14733;DHT22;7457;50.960;6.830;2023-01-10T05:04:07;5.10;92.70
14733;DHT22;7457;50.960;6.830;2023-01-10T05:06:35;5.10;92.50
14733;DHT22;7457;50.960;6.830;2023-01-10T05:09:01;5.10;92.50
14733;DHT22;7457;50.960;6.830;2023-01-10T05:11:27;5.10;92.40
14733;DHT22;7457;50.960;6.830;2023-01-10T05:13:52;5.10;92.40
14733;DHT22;7457;50.960;6.830;2023-01-10T05:16:18;5.10;92.40
14733;DHT22;7457;50.960;6.830;2023-01-10T05:18:43;5.10;92.30
14733;DHT22;7457;50.960;6.830;2023-01-10T05:21:11;5.10;92.30
14733;DHT22;7457;50.960;6.830;2023-01-10T05:23:37;5.10;92.20
14733;DHT22;7457;50.960;6.830;2023-01-10T05:26:10;5.10;92.10
14733;DHT22;7457;50.960;6.830;2023-01-10T05:28:37;5.20;92.00
14733;DHT22;7457;50.960;6.830;2023-01-10T05:31:05;5.10;91.80
14733;DHT22;7457;50.960;6.830;2023-01-10T05:33:31;5.10;91.60
14733;DHT22;7457;50.960;6.830;2023-01-10T05:35:59;5.00;91.50
14733;DHT22;7457;50.960;6.830;2023-01-10T05:38:24;4.90;91.40
14733;DHT22;7457;50.960;6.830;2023-01-10T05:40:54;4.90;91.50
14733;DHT22;7457;50.960;6.830;2023-01-10T05:43:20;4.80;91.60
14733;DHT22;7457;50.960;6.830;2023-01-10T05:45:46;4.80;91.70
14733;DHT22;7457;50.960;6.830;2023-01-10T05:48:11;4.70;91.80
14733;DHT22;7457;50.960;6.830;2023-01-10T05:50:37;4.70;91.80
14733;DHT22;7457;50.960;6.830;2023-01-10T05:53:03;4.70;91.80
14733;DHT22;7457;50.960;6.830;2023-01-10T05:55:30;4.60;91.80
14733;DHT22;7457;50.960;6.830;2023-01-10T05:57:56;4.60;91.90
14733;DHT22;7457;50.960;6.830;2023-01-10T06:00:22;4.60;92.00
14733;DHT22;7457;50.960;6.830;2023-01-10T06:02:48;4.50;92.00
14733;DHT22;7457;50.960;6.830;2023-01-10T06:05:13;4.50;92.00
14733;DHT22;7457;50.960;6.830;2023-01-10T06:07:39;4.50;92.00
14733;DHT22;7457;50.960;6.830;2023-01-10T06:10:05;4.50;92.10
14733;DHT22;7457;50.960;6.830;2023-01-10T06:12:30;4.40;92.10
14733;DHT22;7457;50.960;6.830;2023-01-10T06:14:56;4.40;92.00
14733;DHT22;7457;50.960;6.830;2023-01-10T06:17:22;4.40;92.10
14733;DHT22;7457;50.960;6.830;2023-01-10T06:19:47;4.40;92.40
14733;DHT22;7457;50.960;6.830;2023-01-10T06:22:13;4.30;92.50
14733;DHT22;7457;50.960;6.830;2023-01-10T06:24:38;4.40;92.70
14733;DHT22;7457;50.960;6.830;2023-01-10T06:27:04;4.40;92.70
14733;DHT22;7457;50.960;6.830;2023-01-10T06:29:30;4.40;92.70
14733;DHT22;7457;50.960;6.830;2023-01-10T06:31:56;4.40;92.60
14733;DHT22;7457;50.960;6.830;2023-01-10T06:34:21;4.40;92.40
14733;DHT22;7457;50.960;6.830;2023-01-10T06:36:47;4.40;92.50
14733;DHT22;7457;50.960;6.830;2023-01-10T06:39:12;4.30;92.50
14733;DHT22;7457;50.960;6.830;2023-01-10T06:41:38;4.30;92.60
14733;DHT22;7457;50.960;6.830;2023-01-10T06:44:04;4.30;92.70
14733;DHT22;7457;50.960;6.830;2023-01-10T06:46:29;4.30;92.70
14733;DHT22;7457;50.960;6.830;2023-01-10T06:48:55;4.20;92.70
14733;DHT22;7457;50.960;6.830;2023-01-10T06:51:20;4.20;92.60
14733;DHT22;7457;50.960;6.830;2023-01-10T06:53:46;4.20;92.70
14733;DHT22;7457;50.960;6.830;2023-01-10T06:56:12;4.10;92.80
14733;DHT22;7457;50.960;6.830;2023-01-10T06:58:38;4.10;92.90
14733;DHT22;7457;50.960;6.830;2023-01-10T07:01:11;4.10;92.90
14733;DHT22;7457;50.960;6.830;2023-01-10T07:03:37;4.00;93.00
14733;DHT22;7457;50.960;6.830;2023-01-10T07:06:05;4.00;92.90
14733;DHT22;7457;50.960;6.830;2023-01-10T07:08:35;3.90;92.90
14733;DHT22;7457;50.960;6.830;2023-01-10T07:11:01;3.80;93.00
14733;DHT22;7457;50.960;6.830;2023-01-10T07:13:27;3.80;93.10
14733;DHT22;7457;50.960;6.830;2023-01-10T07:16:03;3.70;93.30
14733;DHT22;7457;50.960;6.830;2023-01-10T07:18:28;3.70;93.50
14733;DHT22;7457;50.960;6.830;2023-01-10T07:20:54;3.70;93.70
14733;DHT22;7457;50.960;6.830;2023-01-10T07:23:20;3.70;93.90
14733;DHT22;7457;50.960;6.830;2023-01-10T07:25:45;3.70;93.90
14733;DHT22;7457;50.960;6.830;2023-01-10T07:28:11;3.70;93.90
14733;DHT22;7457;50.960;6.830;2023-01-10T07:30:36;3.60;93.90
14733;DHT22;7457;50.960;6.830;2023-01-10T07:33:02;3.60;94.00
14733;DHT22;7457;50.960;6.830;2023-01-10T07:35:28;3.60;94.20
14733;DHT22;7457;50.960;6.830;2023-01-10T07:37:57;3.60;94.40
14733;DHT22;7457;50.960;6.830;2023-01-10T07:40:24;3.60;94.50
14733;DHT22;7457;50.960;6.830;2023-01-10T07:42:58;3.70;94.70
14733;DHT22;7457;50.960;6.830;2023-01-10T07:45:23;3.70;94.80
14733;DHT22;7457;50.960;6.830;2023-01-10T07:48:01;3.70;95.00
14733;DHT22;7457;50.960;6.830;2023-01-10T07:50:28;3.80;95.10
14733;DHT22;7457;50.960;6.830;2023-01-10T07:52:54;3.80;95.20
14733;DHT22;7457;50.960;6.830;2023-01-10T07:55:20;3.80;95.30
14733;DHT22;7457;50.960;6.830;2023-01-10T07:57:46;3.90;95.30
14733;DHT22;7457;50.960;6.830;2023-01-10T08:00:12;3.90;95.50
14733;DHT22;7457;50.960;6.830;2023-01-10T08:02:38;3.90;95.70
14733;DHT22;7457;50.960;6.830;2023-01-10T08:05:03;4.00;95.90
14733;DHT22;7457;50.960;6.830;2023-01-10T08:07:30;4.00;96.10
14733;DHT22;7457;50.960;6.830;2023-01-10T08:09:55;4.10;96.30
14733;DHT22;7457;50.960;6.830;2023-01-10T08:12:21;4.20;96.50
14733;DHT22;7457;50.960;6.830;2023-01-10T08:14:51;4.30;96.40
14733;DHT22;7457;50.960;6.830;2023-01-10T08:17:17;4.40;96.60
14733;DHT22;7457;50.960;6.830;2023-01-10T08:19:43;4.50;96.70
14733;DHT22;7457;50.960;6.830;2023-01-10T08:22:09;4.60;96.70
14733;DHT22;7457;50.960;6.830;2023-01-10T08:24:35;4.70;96.60
14733;DHT22;7457;50.960;6.830;2023-01-10T08:27:01;4.80;96.50
14733;DHT22;7457;50.960;6.830;2023-01-10T08:29:27;4.90;96.50
14733;DHT22;7457;50.960;6.830;2023-01-10T08:31:53;5.10;96.40
14733;DHT22;7457;50.960;6.830;2023-01-10T08:34:19;5.20;96.40
14733;DHT22;7457;50.960;6.830;2023-01-10T08:36:48;5.30;96.30
14733;DHT22;7457;50.960;6.830;2023-01-10T08:39:14;5.40;96.00
14733;DHT22;7457;50.960;6.830;2023-01-10T08:41:39;5.60;95.60
14733;DHT22;7457;50.960;6.830;2023-01-10T08:44:05;5.60;94.90
14733;DHT22;7457;50.960;6.830;2023-01-10T08:46:31;5.70;94.40
14733;DHT22;7457;50.960;6.830;2023-01-10T08:48:57;5.70;93.90
14733;DHT22;7457;50.960;6.830;2023-01-10T08:51:22;5.80;93.60
14733;DHT22;7457;50.960;6.830;2023-01-10T08:53:48;5.80;93.20
14733;DHT22;7457;50.960;6.830;2023-01-10T08:56:13;5.80;92.90
14733;DHT22;7457;50.960;6.830;2023-01-10T08:58:39;5.90;92.70
14733;DHT22;7457;50.960;6.830;2023-01-10T09:01:06;6.00;92.60
14733;DHT22;7457;50.960;6.830;2023-01-10T09:03:32;6.10;92.50
14733;DHT22;7457;50.960;6.830;2023-01-10T09:05:59;6.20;92.10
14733;DHT22;7457;50.960;6.830;2023-01-10T09:08:25;6.30;91.90
14733;DHT22;7457;50.960;6.830;2023-01-10T09:10:50;6.40;91.50
14733;DHT22;7457;50.960;6.830;2023-01-10T09:13:16;6.40;91.30
14733;DHT22;7457;50.960;6.830;2023-01-10T09:15:42;6.50;91.10
14733;DHT22;7457;50.960;6.830;2023-01-10T09:18:09;6.60;90.90
14733;DHT22;7457;50.960;6.830;2023-01-10T09:20:36;6.70;90.20
14733;DHT22;7457;50.960;6.830;2023-01-10T09:23:06;6.80;90.50
14733;DHT22;7457;50.960;6.830;2023-01-10T09:25:33;6.80;90.50
14733;DHT22;7457;50.960;6.830;2023-01-10T09:28:00;7.00;90.40
14733;DHT22;7457;50.960;6.830;2023-01-10T09:30:27;7.10;90.50
14733;DHT22;7457;50.960;6.830;2023-01-10T09:32:53;7.30;90.40
14733;DHT22;7457;50.960;6.830;2023-01-10T09:35:20;7.50;90.00
14733;DHT22;7457;50.960;6.830;2023-01-10T09:37:45;7.70;89.70
14733;DHT22;7457;50.960;6.830;2023-01-10T09:40:23;7.90;89.30
14733;DHT22;7457;50.960;6.830;2023-01-10T09:43:07;8.10;88.50
14733;DHT22;7457;50.960;6.830;2023-01-10T09:51:41;8.50;87.20
14733;DHT22;7457;50.960;6.830;2023-01-10T09:54:21;8.60;86.20
14733;DHT22;7457;50.960;6.830;2023-01-10T09:56:47;8.60;85.10
14733;DHT22;7457;50.960;6.830;2023-01-10T09:59:23;8.60;85.00
14733;DHT22;7457;50.960;6.830;2023-01-10T10:01:58;8.70;84.80
14733;DHT22;7457;50.960;6.830;2023-01-10T10:04:29;8.80;84.80
14733;DHT22;7457;50.960;6.830;2023-01-10T10:06:57;8.90;84.70
14733;DHT22;7457;50.960;6.830;2023-01-10T10:09:29;9.00;83.70
14733;DHT22;7457;50.960;6.830;2023-01-10T10:17:32;9.60;82.20
14733;DHT22;7457;50.960;6.830;2023-01-10T10:20:19;9.70;81.60
14733;DHT22;7457;50.960;6.830;2023-01-10T10:30:55;9.90;79.40
14733;DHT22;7457;50.960;6.830;2023-01-10T10:36:17;10.10;78.80
14733;DHT22;7457;50.960;6.830;2023-01-10T10:38:46;10.20;78.40
14733;DHT22;7457;50.960;6.830;2023-01-10T10:41:34;10.30;77.90
14733;DHT22;7457;50.960;6.830;2023-01-10T10:44:15;10.40;77.10
14733;DHT22;7457;50.960;6.830;2023-01-10T10:46:43;10.50;77.70
14733;DHT22;7457;50.960;6.830;2023-01-10T10:49:37;10.60;78.10
14733;DHT22;7457;50.960;6.830;2023-01-10T10:52:23;10.80;77.70
14733;DHT22;7457;50.960;6.830;2023-01-10T10:54:49;11.00;76.80
14733;DHT22;7457;50.960;6.830;2023-01-10T10:57:15;11.00;76.10
14733;DHT22;7457;50.960;6.830;2023-01-10T10:59:43;10.90;75.30
14733;DHT22;7457;50.960;6.830;2023-01-10T11:04:46;10.80;74.70
14733;DHT22;7457;50.960;6.830;2023-01-10T11:07:16;10.70;74.80
14733;DHT22;7457;50.960;6.830;2023-01-10T11:09:42;10.50;74.20
14733;DHT22;7457;50.960;6.830;2023-01-10T11:12:14;10.20;74.00
14733;DHT22;7457;50.960;6.830;2023-01-10T11:14:50;10.00;74.60
14733;DHT22;7457;50.960;6.830;2023-01-10T11:17:30;9.80;74.20
14733;DHT22;7457;50.960;6.830;2023-01-10T11:22:39;9.50;75.10
14733;DHT22;7457;50.960;6.830;2023-01-10T11:25:19;9.40;75.10
14733;DHT22;7457;50.960;6.830;2023-01-10T11:27:51;9.30;75.30
14733;DHT22;7457;50.960;6.830;2023-01-10T11:30:31;9.20;75.20
14733;DHT22;7457;50.960;6.830;2023-01-10T11:33:05;9.20;75.70
14733;DHT22;7457;50.960;6.830;2023-01-10T11:35:36;9.20;75.70
14733;DHT22;7457;50.960;6.830;2023-01-10T11:38:19;9.20;75.20
14733;DHT22;7457;50.960;6.830;2023-01-10T11:41:02;9.20;75.20
14733;DHT22;7457;50.960;6.830;2023-01-10T11:43:34;9.10;75.50
14733;DHT22;7457;50.960;6.830;2023-01-10T11:51:22;9.10;75.10
14733;DHT22;7457;50.960;6.830;2023-01-10T11:53:56;9.20;75.00
14733;DHT22;7457;50.960;6.830;2023-01-10T11:56:26;9.30;75.00
14733;DHT22;7457;50.960;6.830;2023-01-10T11:58:53;9.30;74.30
14733;DHT22;7457;50.960;6.830;2023-01-10T12:01:44;9.30;74.00
14733;DHT22;7457;50.960;6.830;2023-01-10T12:04:16;9.30;73.90
14733;DHT22;7457;50.960;6.830;2023-01-10T12:06:47;9.30;74.20
14733;DHT22;7457;50.960;6.830;2023-01-10T12:10:18;9.40;74.00
14733;DHT22;7457;50.960;6.830;2023-01-10T12:12:31;9.30;73.30
14733;DHT22;7457;50.960;6.830;2023-01-10T12:15:00;9.30;72.90
14733;DHT22;7457;50.960;6.830;2023-01-10T12:17:44;9.20;72.80
14733;DHT22;7457;50.960;6.830;2023-01-10T12:20:13;9.10;73.30
14733;DHT22;7457;50.960;6.830;2023-01-10T12:22:45;9.00;73.30
14733;DHT22;7457;50.960;6.830;2023-01-10T12:25:22;8.90;73.30
14733;DHT22;7457;50.960;6.830;2023-01-10T12:27:50;8.80;73.60
14733;DHT22;7457;50.960;6.830;2023-01-10T12:32:53;8.70;73.50
14733;DHT22;7457;50.960;6.830;2023-01-10T12:35:41;8.60;73.70
14733;DHT22;7457;50.960;6.830;2023-01-10T12:38:21;8.50;73.90
14733;DHT22;7457;50.960;6.830;2023-01-10T12:41:07;8.50;74.00
14733;DHT22;7457;50.960;6.830;2023-01-10T12:43:39;8.40;74.10
14733;DHT22;7457;50.960;6.830;2023-01-10T12:47:31;8.40;74.30
14733;DHT22;7457;50.960;6.830;2023-01-10T12:49:34;8.40;74.60
14733;DHT22;7457;50.960;6.830;2023-01-10T12:52:06;8.30;74.40
14733;DHT22;7457;50.960;6.830;2023-01-10T12:54:35;8.30;74.40
14733;DHT22;7457;50.960;6.830;2023-01-10T12:57:07;8.30;74.40
14733;DHT22;7457;50.960;6.830;2023-01-10T12:59:40;8.20;74.90
14733;DHT22;7457;50.960;6.830;2023-01-10T13:02:18;8.20;75.20
14733;DHT22;7457;50.960;6.830;2023-01-10T13:04:48;8.20;74.70
14733;DHT22;7457;50.960;6.830;2023-01-10T13:07:16;8.10;75.10
14733;DHT22;7457;50.960;6.830;2023-01-10T13:09:43;8.10;75.10
14733;DHT22;7457;50.960;6.830;2023-01-10T13:12:23;8.10;75.30
14733;DHT22;7457;50.960;6.830;2023-01-10T13:17:33;8.10;75.00
14733;DHT22;7457;50.960;6.830;2023-01-10T13:22:48;8.10;75.00
14733;DHT22;7457;50.960;6.830;2023-01-10T13:25:20;8.10;75.30
14733;DHT22;7457;50.960;6.830;2023-01-10T13:27:58;8.10;75.30
14733;DHT22;7457;50.960;6.830;2023-01-10T13:30:37;8.00;75.00
14733;DHT22;7457;50.960;6.830;2023-01-10T13:33:25;8.00;74.90
14733;DHT22;7457;50.960;6.830;2023-01-10T13:35:53;8.00;75.20
14733;DHT22;7457;50.960;6.830;2023-01-10T13:38:36;8.00;75.40
14733;DHT22;7457;50.960;6.830;2023-01-10T13:41:06;7.90;75.10
14733;DHT22;7457;50.960;6.830;2023-01-10T13:43:37;7.90;74.80
14733;DHT22;7457;50.960;6.830;2023-01-10T13:51:31;7.80;74.70
14733;DHT22;7457;50.960;6.830;2023-01-10T13:56:44;7.80;74.50
14733;DHT22;7457;50.960;6.830;2023-01-10T14:02:22;7.70;74.70
14733;DHT22;7457;50.960;6.830;2023-01-10T14:05:01;7.70;74.70
14733;DHT22;7457;50.960;6.830;2023-01-10T14:07:32;7.60;74.60
14733;DHT22;7457;50.960;6.830;2023-01-10T14:10:09;7.60;74.60
14733;DHT22;7457;50.960;6.830;2023-01-10T14:12:53;7.60;74.70
14733;DHT22;7457;50.960;6.830;2023-01-10T14:15:26;7.50;74.60
14733;DHT22;7457;50.960;6.830;2023-01-10T14:18:02;7.50;74.80
14733;DHT22;7457;50.960;6.830;2023-01-10T14:20:30;7.50;74.60
14733;DHT22;7457;50.960;6.830;2023-01-10T14:23:53;7.50;74.50
14733;DHT22;7457;50.960;6.830;2023-01-10T14:25:55;7.50;74.30
14733;DHT22;7457;50.960;6.830;2023-01-10T14:28:26;7.50;74.50
14733;DHT22;7457;50.960;6.830;2023-01-10T14:31:18;7.50;74.50
14733;DHT22;7457;50.960;6.830;2023-01-10T14:33:44;7.50;74.40
14733;DHT22;7457;50.960;6.830;2023-01-10T14:36:24;7.50;74.50
14733;DHT22;7457;50.960;6.830;2023-01-10T14:38:55;7.50;74.60
14733;DHT22;7457;50.960;6.830;2023-01-10T14:41:36;7.40;74.70
14733;DHT22;7457;50.960;6.830;2023-01-10T14:44:07;7.40;74.70
14733;DHT22;7457;50.960;6.830;2023-01-10T14:46:42;7.40;74.90
14733;DHT22;7457;50.960;6.830;2023-01-10T14:49:28;7.40;74.90
14733;DHT22;7457;50.960;6.830;2023-01-10T14:52:10;7.40;74.80
14733;DHT22;7457;50.960;6.830;2023-01-10T14:54:36;7.40;74.90
14733;DHT22;7457;50.960;6.830;2023-01-10T14:57:02;7.30;75.00
14733;DHT22;7457;50.960;6.830;2023-01-10T15:01:59;7.40;74.70
14733;DHT22;7457;50.960;6.830;2023-01-10T15:04:28;7.40;74.80
14733;DHT22;7457;50.960;6.830;2023-01-10T15:06:59;7.30;74.70
14733;DHT22;7457;50.960;6.830;2023-01-10T15:09:28;7.30;75.00
14733;DHT22;7457;50.960;6.830;2023-01-10T15:11:57;7.30;75.00
14733;DHT22;7457;50.960;6.830;2023-01-10T15:14:25;7.30;75.20
14733;DHT22;7457;50.960;6.830;2023-01-10T15:16:56;7.30;75.30
14733;DHT22;7457;50.960;6.830;2023-01-10T15:19:30;7.30;75.50
14733;DHT22;7457;50.960;6.830;2023-01-10T15:21:56;7.30;75.60
14733;DHT22;7457;50.960;6.830;2023-01-10T15:24:35;7.30;75.60
14733;DHT22;7457;50.960;6.830;2023-01-10T15:27:04;7.30;75.80
14733;DHT22;7457;50.960;6.830;2023-01-10T15:29:31;7.20;76.00
14733;DHT22;7457;50.960;6.830;2023-01-10T15:32:10;7.20;76.30
14733;DHT22;7457;50.960;6.830;2023-01-10T15:34:36;7.20;76.80
14733;DHT22;7457;50.960;6.830;2023-01-10T15:37:16;7.10;77.20
14733;DHT22;7457;50.960;6.830;2023-01-10T15:39:45;7.10;77.90
14733;DHT22;7457;50.960;6.830;2023-01-10T15:42:11;7.00;78.70
14733;DHT22;7457;50.960;6.830;2023-01-10T15:44:45;6.90;79.30
14733;DHT22;7457;50.960;6.830;2023-01-10T15:50:00;6.70;81.60
14733;DHT22;7457;50.960;6.830;2023-01-10T15:52:26;6.60;82.70
14733;DHT22;7457;50.960;6.830;2023-01-10T15:54:51;6.40;83.90
14733;DHT22;7457;50.960;6.830;2023-01-10T15:57:26;6.30;85.10
14733;DHT22;7457;50.960;6.830;2023-01-10T15:59:55;6.20;86.20
14733;DHT22;7457;50.960;6.830;2023-01-10T16:02:29;6.10;87.40
14733;DHT22;7457;50.960;6.830;2023-01-10T16:05:07;6.00;88.30
14733;DHT22;7457;50.960;6.830;2023-01-10T16:07:34;6.00;89.10
14733;DHT22;7457;50.960;6.830;2023-01-10T16:10:02;6.00;89.70
14733;DHT22;7457;50.960;6.830;2023-01-10T16:12:35;5.90;90.30
14733;DHT22;7457;50.960;6.830;2023-01-10T16:15:28;5.90;90.90
14733;DHT22;7457;50.960;6.830;2023-01-10T16:17:54;5.80;91.50
14733;DHT22;7457;50.960;6.830;2023-01-10T16:20:25;5.80;92.10
14733;DHT22;7457;50.960;6.830;2023-01-10T16:22:51;5.80;92.40
14733;DHT22;7457;50.960;6.830;2023-01-10T16:25:24;5.80;92.80
14733;DHT22;7457;50.960;6.830;2023-01-10T16:27:50;5.70;93.30
14733;DHT22;7457;50.960;6.830;2023-01-10T16:32:48;5.70;94.40
14733;DHT22;7457;50.960;6.830;2023-01-10T16:35:13;5.70;94.60
14733;DHT22;7457;50.960;6.830;2023-01-10T16:37:41;5.70;94.80
14733;DHT22;7457;50.960;6.830;2023-01-10T16:40:26;5.70;95.20
14733;DHT22;7457;50.960;6.830;2023-01-10T16:42:53;5.70;95.70
14733;DHT22;7457;50.960;6.830;2023-01-10T16:45:38;5.70;96.00
14733;DHT22;7457;50.960;6.830;2023-01-10T16:48:04;5.60;96.30
14733;DHT22;7457;50.960;6.830;2023-01-10T16:50:29;5.60;96.50
14733;DHT22;7457;50.960;6.830;2023-01-10T16:52:56;5.60;96.90
14733;DHT22;7457;50.960;6.830;2023-01-10T16:55:25;5.60;97.10
14733;DHT22;7457;50.960;6.830;2023-01-10T16:57:53;5.60;97.30
14733;DHT22;7457;50.960;6.830;2023-01-10T17:00:21;5.60;97.50
14733;DHT22;7457;50.960;6.830;2023-01-10T17:02:47;5.50;97.60
14733;DHT22;7457;50.960;6.830;2023-01-10T17:05:12;5.50;98.00
14733;DHT22;7457;50.960;6.830;2023-01-10T17:07:38;5.50;98.00
14733;DHT22;7457;50.960;6.830;2023-01-10T17:10:04;5.50;98.30
14733;DHT22;7457;50.960;6.830;2023-01-10T17:12:33;5.50;98.50
14733;DHT22;7457;50.960;6.830;2023-01-10T17:15:02;5.50;98.70
14733;DHT22;7457;50.960;6.830;2023-01-10T17:17:29;5.50;98.90
14733;DHT22;7457;50.960;6.830;2023-01-10T17:19:55;5.50;99.10
14733;DHT22;7457;50.960;6.830;2023-01-10T17:22:20;5.50;99.20
14733;DHT22;7457;50.960;6.830;2023-01-10T17:24:46;5.50;99.40
14733;DHT22;7457;50.960;6.830;2023-01-10T17:27:12;5.50;99.50
14733;DHT22;7457;50.960;6.830;2023-01-10T17:29:38;5.50;99.70
14733;DHT22;7457;50.960;6.830;2023-01-10T17:32:05;5.40;99.70
14733;DHT22;7457;50.960;6.830;2023-01-10T17:34:30;5.40;99.90
14733;DHT22;7457;50.960;6.830;2023-01-10T17:37:02;5.40;100.00
14733;DHT22;7457;50.960;6.830;2023-01-10T17:39:27;5.40;100.00
14733;DHT22;7457;50.960;6.830;2023-01-10T17:41:53;5.40;100.00
14733;DHT22;7457;50.960;6.830;2023-01-10T17:44:18;5.40;100.00
14733;DHT22;7457;50.960;6.830;2023-01-10T17:46:44;5.40;100.00